createdAt,value
2018-12-16T00:00:13.224Z,-3.92
2018-12-16T00:01:49.162Z,-3.93
2018-12-16T00:03:27.396Z,-3.89
2018-12-16T00:05:03.120Z,-3.89
2018-12-16T00:06:52.856Z,-3.86
2018-12-16T00:08:27.800Z,-3.86
2018-12-16T00:10:03.911Z,-3.90
2018-12-16T00:11:47.469Z,-3.91
2018-12-16T00:13:23.074Z,-3.89
2018-12-16T00:14:59.239Z,-3.88
2018-12-16T00:16:35.211Z,-3.87
2018-12-16T00:18:15.783Z,-3.84
2018-12-16T00:19:51.141Z,-3.85
2018-12-16T00:21:28.165Z,-3.83
2018-12-16T00:23:06.112Z,-3.82
2018-12-16T00:24:42.860Z,-3.84
2018-12-16T00:26:21.649Z,-3.81
2018-12-16T00:28:04.707Z,-3.85
2018-12-16T00:29:40.580Z,-3.79
2018-12-16T00:31:17.467Z,-3.84
2018-12-16T00:32:53.783Z,-3.78
2018-12-16T00:34:32.599Z,-3.82
2018-12-16T00:36:07.627Z,-3.80
2018-12-16T00:37:43.418Z,-3.75
2018-12-16T00:39:20.044Z,-3.79
2018-12-16T00:40:55.889Z,-3.74
2018-12-16T00:42:34.035Z,-3.79
2018-12-16T00:44:10.201Z,-3.82
2018-12-16T00:45:49.389Z,-3.84
2018-12-16T00:47:26.342Z,-3.86
2018-12-16T00:49:05.670Z,-3.88
2018-12-16T00:50:41.600Z,-3.79
2018-12-16T00:52:24.330Z,-3.80
2018-12-16T00:54:01.742Z,-3.79
2018-12-16T00:55:38.180Z,-3.78
2018-12-16T00:57:14.326Z,-3.82
2018-12-16T00:58:49.539Z,-3.77
2018-12-16T01:00:26.800Z,-3.76
2018-12-16T01:02:02.832Z,-3.74
2018-12-16T01:03:38.237Z,-3.77
2018-12-16T01:05:17.497Z,-3.78
2018-12-16T01:06:54.158Z,-3.78
2018-12-16T01:08:32.805Z,-3.78
2018-12-16T01:10:12.141Z,-3.73
2018-12-16T01:11:51.801Z,-3.74
2018-12-16T01:13:29.369Z,-3.78
2018-12-16T01:15:08.805Z,-3.75
2018-12-16T01:16:46.818Z,-3.71
2018-12-16T01:18:25.877Z,-3.73
2018-12-16T01:20:01.329Z,-3.70
2018-12-16T01:21:40.486Z,-3.73
2018-12-16T01:23:18.857Z,-3.76
2018-12-16T01:24:53.665Z,-3.74
2018-12-16T01:26:29.855Z,-3.76
2018-12-16T01:28:06.490Z,-3.72
2018-12-16T01:29:43.203Z,-3.74
2018-12-16T01:31:19.843Z,-3.74
2018-12-16T01:32:55.020Z,-3.74
2018-12-16T01:34:31.583Z,-3.76
2018-12-16T01:36:09.171Z,-3.72
2018-12-16T01:37:48.027Z,-3.71
2018-12-16T01:39:23.562Z,-3.72
2018-12-16T01:41:13.217Z,-3.74
2018-12-16T01:43:03.697Z,-3.78
2018-12-16T01:44:55.318Z,-3.78
2018-12-16T01:46:37.078Z,-3.76
2018-12-16T01:48:16.144Z,-3.76
2018-12-16T01:49:53.731Z,-3.80
2018-12-16T01:51:31.646Z,-3.79
2018-12-16T01:53:07.984Z,-3.75
2018-12-16T01:54:45.661Z,-3.80
2018-12-16T01:56:26.110Z,-3.77
2018-12-16T01:58:02.538Z,-3.76
2018-12-16T01:59:42.281Z,-3.79
2018-12-16T02:01:19.396Z,-3.78
2018-12-16T02:02:56.043Z,-3.78
2018-12-16T02:04:32.817Z,-3.78
2018-12-16T02:06:09.703Z,-3.75
2018-12-16T02:07:47.555Z,-3.82
2018-12-16T02:09:24.780Z,-3.83
2018-12-16T02:11:02.187Z,-3.77
2018-12-16T02:12:37.472Z,-3.78
2018-12-16T02:14:14.867Z,-3.75
2018-12-16T02:15:51.641Z,-3.79
2018-12-16T02:17:28.423Z,-3.79
2018-12-16T02:19:06.006Z,-3.79
2018-12-16T02:20:41.020Z,-3.76
2018-12-16T02:22:18.694Z,-3.76
2018-12-16T02:24:06.501Z,-3.77
2018-12-16T02:25:43.557Z,-3.77
2018-12-16T02:27:22.573Z,-3.72
2018-12-16T02:29:01.412Z,-3.75
2018-12-16T02:30:37.623Z,-3.78
2018-12-16T02:32:14.367Z,-3.73
2018-12-16T02:33:49.865Z,-3.70
2018-12-16T02:35:26.824Z,-3.75
2018-12-16T02:37:04.285Z,-3.73
2018-12-16T02:38:40.935Z,-3.73
2018-12-16T02:40:19.081Z,-3.74
2018-12-16T02:41:57.317Z,-3.67
2018-12-16T02:43:34.959Z,-3.68
2018-12-16T02:45:15.356Z,-3.65
2018-12-16T02:46:52.200Z,-3.63
2018-12-16T02:48:28.498Z,-3.64
2018-12-16T02:50:04.526Z,-3.63
2018-12-16T02:51:43.022Z,-3.64
2018-12-16T02:53:19.884Z,-3.62
2018-12-16T02:54:58.863Z,-3.63
2018-12-16T02:56:37.951Z,-3.60
2018-12-16T02:58:15.159Z,-3.57
2018-12-16T02:59:52.714Z,-3.60
2018-12-16T03:01:30.101Z,-3.59
2018-12-16T03:03:07.060Z,-3.55
2018-12-16T03:04:43.573Z,-3.61
2018-12-16T03:06:19.092Z,-3.57
2018-12-16T03:07:55.056Z,-3.58
2018-12-16T03:09:30.449Z,-3.52
2018-12-16T03:11:06.827Z,-3.57
2018-12-16T03:12:41.908Z,-3.57
2018-12-16T03:14:18.809Z,-3.57
2018-12-16T03:15:56.216Z,-3.60
2018-12-16T03:17:31.284Z,-3.56
2018-12-16T03:19:07.586Z,-3.59
2018-12-16T03:20:43.070Z,-3.56
2018-12-16T03:22:33.180Z,-3.60
2018-12-16T03:24:08.529Z,-3.64
2018-12-16T03:25:44.379Z,-3.62
2018-12-16T03:27:21.504Z,-3.58
2018-12-16T03:28:56.840Z,-3.59
2018-12-16T03:30:33.495Z,-3.57
2018-12-16T03:32:12.974Z,-3.59
2018-12-16T03:33:53.189Z,-3.57
2018-12-16T03:35:29.044Z,-3.58
2018-12-16T03:37:03.833Z,-3.60
2018-12-16T03:38:41.084Z,-3.58
2018-12-16T03:40:17.877Z,-3.56
2018-12-16T03:41:53.141Z,-3.61
2018-12-16T03:43:28.426Z,-3.58
2018-12-16T03:45:05.161Z,-3.61
2018-12-16T03:46:41.422Z,-3.57
2018-12-16T03:48:16.872Z,-3.56
2018-12-16T03:49:52.623Z,-3.60
2018-12-16T03:51:27.836Z,-3.62
2018-12-16T03:53:03.402Z,-3.65
2018-12-16T03:54:39.174Z,-3.72
2018-12-16T03:56:14.188Z,-3.71
2018-12-16T03:57:49.089Z,-3.72
2018-12-16T03:59:24.165Z,-3.74
2018-12-16T04:00:59.409Z,-3.81
2018-12-16T04:02:35.063Z,-3.82
2018-12-16T04:04:10.149Z,-3.82
2018-12-16T04:05:45.561Z,-3.81
2018-12-16T04:07:23.267Z,-3.78
2018-12-16T04:08:59.311Z,-3.83
2018-12-16T04:10:34.632Z,-3.82
2018-12-16T04:12:09.854Z,-3.82
2018-12-16T04:13:44.881Z,-3.83
2018-12-16T04:15:20.011Z,-3.82
2018-12-16T04:16:57.056Z,-3.86
2018-12-16T04:18:32.747Z,-3.85
2018-12-16T04:20:07.666Z,-3.85
2018-12-16T04:21:42.538Z,-3.82
2018-12-16T04:23:17.752Z,-3.81
2018-12-16T04:24:54.711Z,-3.86
2018-12-16T04:26:29.537Z,-3.88
2018-12-16T04:28:04.697Z,-3.83
2018-12-16T04:29:39.834Z,-3.81
2018-12-16T04:31:15.338Z,-3.81
2018-12-16T04:32:51.510Z,-3.85
2018-12-16T04:34:26.452Z,-3.87
2018-12-16T04:36:01.524Z,-3.82
2018-12-16T04:37:36.555Z,-3.81
2018-12-16T04:39:11.939Z,-3.81
2018-12-16T04:40:47.176Z,-3.78
2018-12-16T04:42:22.275Z,-3.73
2018-12-16T04:43:57.298Z,-3.77
2018-12-16T04:45:33.122Z,-3.78
2018-12-16T04:47:08.576Z,-3.81
2018-12-16T04:48:44.791Z,-3.76
2018-12-16T04:50:20.260Z,-3.79
2018-12-16T04:51:55.858Z,-3.79
2018-12-16T04:53:35.924Z,-3.81
2018-12-16T04:55:09.428Z,-3.84
2018-12-16T04:56:45.412Z,-3.86
2018-12-16T04:58:21.696Z,-3.88
2018-12-16T04:59:57.168Z,-3.91
2018-12-16T05:01:32.326Z,-3.89
2018-12-16T05:03:07.656Z,-3.90
2018-12-16T05:04:43.295Z,-3.90
2018-12-16T05:06:20.328Z,-3.93
2018-12-16T05:07:55.468Z,-3.95
2018-12-16T05:09:31.400Z,-3.92
2018-12-16T05:11:08.529Z,-3.90
2018-12-16T05:12:44.881Z,-3.90
2018-12-16T05:14:20.500Z,-3.88
2018-12-16T05:15:55.865Z,-3.89
2018-12-16T05:17:30.723Z,-3.88
2018-12-16T05:19:05.847Z,-3.86
2018-12-16T05:20:41.820Z,-3.87
2018-12-16T05:22:17.528Z,-3.85
2018-12-16T05:23:52.604Z,-3.87
2018-12-16T05:25:27.507Z,-3.85
2018-12-16T05:27:03.869Z,-3.82
2018-12-16T05:28:39.245Z,-3.85
2018-12-16T05:30:15.997Z,-3.85
2018-12-16T05:31:51.340Z,-3.90
2018-12-16T05:33:26.141Z,-3.90
2018-12-16T05:35:01.200Z,-3.95
2018-12-16T05:36:36.733Z,-3.94
2018-12-16T05:38:12.669Z,-3.96
2018-12-16T05:39:47.952Z,-4.03
2018-12-16T05:41:23.305Z,-4.03
2018-12-16T05:42:58.452Z,-4.00
2018-12-16T05:44:34.269Z,-3.97
2018-12-16T05:46:16.961Z,-3.89
2018-12-16T05:47:51.894Z,-3.96
2018-12-16T05:49:27.483Z,-4.03
2018-12-16T05:51:03.330Z,-3.99
2018-12-16T05:52:38.979Z,-3.99
2018-12-16T05:54:15.804Z,-3.94
2018-12-16T05:55:56.534Z,-3.92
2018-12-16T05:57:31.778Z,-3.93
2018-12-16T05:59:07.530Z,-3.97
2018-12-16T06:00:42.980Z,-4.02
2018-12-16T06:02:18.280Z,-4.02
2018-12-16T06:03:53.832Z,-3.97
2018-12-16T06:05:29.044Z,-3.95
2018-12-16T06:07:04.821Z,-3.94
2018-12-16T06:08:40.029Z,-3.98
2018-12-16T06:10:15.274Z,-4.01
2018-12-16T06:11:50.464Z,-4.00
2018-12-16T06:13:25.272Z,-3.92
2018-12-16T06:15:00.449Z,-3.95
2018-12-16T06:16:35.816Z,-4.00
2018-12-16T06:18:10.766Z,-4.00
2018-12-16T06:19:46.119Z,-4.01
2018-12-16T06:21:21.333Z,-3.98
2018-12-16T06:22:56.487Z,-4.03
2018-12-16T06:24:31.941Z,-3.98
2018-12-16T06:26:06.984Z,-3.95
2018-12-16T06:27:43.177Z,-3.97
2018-12-16T06:29:19.036Z,-3.94
2018-12-16T06:30:55.832Z,-3.91
2018-12-16T06:32:32.744Z,-3.90
2018-12-16T06:34:15.993Z,-3.85
2018-12-16T06:35:57.678Z,-3.89
2018-12-16T06:37:32.877Z,-3.92
2018-12-16T06:39:09.060Z,-3.92
2018-12-16T06:40:44.387Z,-3.92
2018-12-16T06:42:22.573Z,-3.98
2018-12-16T06:43:58.788Z,-3.96
2018-12-16T06:45:34.113Z,-3.89
2018-12-16T06:47:10.243Z,-3.81
2018-12-16T06:48:49.162Z,-3.85
2018-12-16T06:50:26.772Z,-3.86
2018-12-16T06:52:04.323Z,-3.88
2018-12-16T06:53:39.911Z,-3.95
2018-12-16T06:55:15.862Z,-3.92
2018-12-16T06:56:51.532Z,-3.87
2018-12-16T06:58:31.266Z,-3.86
2018-12-16T07:00:14.917Z,-3.88
2018-12-16T07:01:52.847Z,-3.95
2018-12-16T07:03:30.688Z,-3.89
2018-12-16T07:05:07.577Z,-3.87
2018-12-16T07:06:45.031Z,-3.82
2018-12-16T07:08:21.828Z,-3.89
2018-12-16T07:09:57.576Z,-3.88
2018-12-16T07:11:33.503Z,-3.86
2018-12-16T07:13:08.406Z,-3.83
2018-12-16T07:14:44.653Z,-3.81
2018-12-16T07:16:19.893Z,-3.82
2018-12-16T07:17:55.746Z,-3.83
2018-12-16T07:19:31.470Z,-3.85
2018-12-16T07:21:06.418Z,-3.83
2018-12-16T07:22:43.528Z,-3.85
2018-12-16T07:24:19.478Z,-3.81
2018-12-16T07:25:56.365Z,-3.82
2018-12-16T07:27:33.444Z,-3.83
2018-12-16T07:29:11.222Z,-3.85
2018-12-16T07:30:47.964Z,-3.86
2018-12-16T07:32:25.679Z,-3.84
2018-12-16T07:34:04.113Z,-3.82
2018-12-16T07:35:41.907Z,-3.81
2018-12-16T07:37:19.465Z,-3.76
2018-12-16T07:38:57.524Z,-3.72
2018-12-16T07:40:34.316Z,-3.69
2018-12-16T07:42:15.674Z,-3.72
2018-12-16T07:43:51.203Z,-3.73
2018-12-16T07:45:27.441Z,-3.70
2018-12-16T07:47:03.358Z,-3.67
2018-12-16T07:48:49.160Z,-3.67
2018-12-16T07:50:26.189Z,-3.69
2018-12-16T07:52:03.178Z,-3.66
2018-12-16T07:53:40.045Z,-3.63
2018-12-16T07:55:16.551Z,-3.64
2018-12-16T07:56:55.174Z,-3.66
2018-12-16T07:58:31.269Z,-3.70
2018-12-16T08:00:17.987Z,-3.69
2018-12-16T08:01:54.908Z,-3.64
2018-12-16T08:03:30.037Z,-3.63
2018-12-16T08:05:07.523Z,-3.64
2018-12-16T08:06:42.890Z,-3.58
2018-12-16T08:08:22.357Z,-3.63
2018-12-16T08:10:06.023Z,-3.65
2018-12-16T08:11:46.233Z,-3.59
2018-12-16T08:13:29.404Z,-3.62
2018-12-16T08:15:13.847Z,-3.56
2018-12-16T08:16:55.882Z,-3.51
2018-12-16T08:18:37.913Z,-3.49
2018-12-16T08:20:17.643Z,-3.49
2018-12-16T08:21:57.623Z,-3.44
2018-12-16T08:23:38.367Z,-3.41
2018-12-16T08:25:19.243Z,-3.43
2018-12-16T08:27:02.038Z,-3.38
2018-12-16T08:28:41.982Z,-3.39
2018-12-16T08:30:20.272Z,-3.40
2018-12-16T08:31:59.450Z,-3.35
2018-12-16T08:33:43.612Z,-3.36
2018-12-16T08:35:22.003Z,-3.37
2018-12-16T08:37:01.569Z,-3.37
2018-12-16T08:38:41.816Z,-3.31
2018-12-16T08:40:19.408Z,-3.31
2018-12-16T08:41:59.107Z,-3.30
2018-12-16T08:43:41.211Z,-3.30
2018-12-16T08:45:22.068Z,-3.26
2018-12-16T08:47:01.503Z,-3.31
2018-12-16T08:48:39.106Z,-3.31
2018-12-16T08:50:16.660Z,-3.30
2018-12-16T08:51:54.272Z,-3.29
2018-12-16T08:53:32.655Z,-3.24
2018-12-16T08:55:09.074Z,-3.19
2018-12-16T08:56:48.748Z,-3.20
2018-12-16T08:58:28.010Z,-3.22
2018-12-16T09:00:10.709Z,-3.22
2018-12-16T09:01:51.655Z,-3.25
2018-12-16T09:03:32.484Z,-3.17
2018-12-16T09:05:08.964Z,-3.20
2018-12-16T09:06:46.296Z,-3.19
2018-12-16T09:08:23.079Z,-3.19
2018-12-16T09:10:04.451Z,-3.17
2018-12-16T09:11:47.962Z,-3.17
2018-12-16T09:13:28.002Z,-3.18
2018-12-16T09:15:08.931Z,-3.10
2018-12-16T09:16:49.213Z,-3.14
2018-12-16T09:18:27.405Z,-3.12
2018-12-16T09:20:04.035Z,-3.01
2018-12-16T09:21:42.690Z,-3.03
2018-12-16T09:23:18.772Z,-3.04
2018-12-16T09:24:56.597Z,-2.99
2018-12-16T09:26:32.971Z,-2.94
2018-12-16T09:28:09.378Z,-2.96
2018-12-16T09:29:46.176Z,-2.87
2018-12-16T09:31:24.052Z,-2.79
2018-12-16T09:33:00.553Z,-2.80
2018-12-16T09:34:38.026Z,-2.73
2018-12-16T09:36:16.623Z,-2.77
2018-12-16T09:37:59.799Z,-2.72
2018-12-16T09:39:35.869Z,-2.68
2018-12-16T09:41:11.823Z,-2.67
2018-12-16T09:42:49.178Z,-2.63
2018-12-16T09:44:29.517Z,-2.62
2018-12-16T09:46:05.811Z,-2.51
2018-12-16T09:47:42.552Z,-2.54
2018-12-16T09:49:18.564Z,-2.49
2018-12-16T09:50:55.537Z,-2.37
2018-12-16T09:52:31.599Z,-2.34
2018-12-16T09:54:08.262Z,-2.32
2018-12-16T09:55:43.389Z,-2.32
2018-12-16T09:57:20.318Z,-2.30
2018-12-16T09:58:58.619Z,-2.24
2018-12-16T10:00:34.887Z,-2.27
2018-12-16T10:02:11.152Z,-2.28
2018-12-16T10:03:46.746Z,-2.21
2018-12-16T10:05:23.322Z,-2.13
2018-12-16T10:06:59.496Z,-2.17
2018-12-16T10:08:35.797Z,-2.05
2018-12-16T10:10:12.286Z,-2.02
2018-12-16T10:11:47.860Z,-2.00
2018-12-16T10:13:24.119Z,-2.01
2018-12-16T10:15:00.208Z,-1.95
2018-12-16T10:16:37.250Z,-1.88
2018-12-16T10:18:14.149Z,-1.77
2018-12-16T10:19:50.039Z,-1.81
2018-12-16T10:21:27.437Z,-1.73
2018-12-16T10:23:04.237Z,-1.63
2018-12-16T10:24:51.073Z,-1.64
2018-12-16T10:26:22.888Z,-1.71
2018-12-16T10:27:59.412Z,-1.61
2018-12-16T10:31:32.262Z,-1.56
2018-12-16T10:33:10.352Z,-1.52
2018-12-16T10:34:47.229Z,-1.36
2018-12-16T10:36:26.457Z,-1.34
2018-12-16T10:38:02.437Z,-1.39
2018-12-16T10:39:38.447Z,-1.27
2018-12-16T10:41:13.993Z,-1.35
2018-12-16T10:42:50.439Z,-1.20
2018-12-16T10:44:28.192Z,-1.16
2018-12-16T10:46:07.154Z,-1.11
2018-12-16T10:47:43.457Z,-0.99
2018-12-16T10:49:24.941Z,-1.03
2018-12-16T10:51:04.278Z,-1.10
2018-12-16T10:52:45.150Z,-1.11
2018-12-16T10:54:24.971Z,-1.05
2018-12-16T10:56:00.461Z,-0.86
2018-12-16T10:57:38.255Z,-0.76
2018-12-16T10:59:23.701Z,-0.62
2018-12-16T11:01:06.554Z,-0.79
2018-12-16T11:02:44.587Z,-0.74
2018-12-16T11:04:21.955Z,-0.66
2018-12-16T11:05:59.730Z,-0.59
2018-12-16T11:07:36.911Z,-0.58
2018-12-16T11:09:16.012Z,-0.62
2018-12-16T11:10:54.616Z,-0.74
2018-12-16T11:12:32.558Z,-0.92
2018-12-16T11:14:09.965Z,-0.91
2018-12-16T11:15:47.655Z,-0.97
2018-12-16T11:17:25.251Z,-0.92
2018-12-16T11:19:02.115Z,-1.01
2018-12-16T11:20:41.306Z,-1.09
2018-12-16T11:22:17.915Z,-1.10
2018-12-16T11:23:54.013Z,-1.12
2018-12-16T11:25:30.338Z,-1.12
2018-12-16T11:27:06.266Z,-1.18
2018-12-16T11:28:48.902Z,-1.26
2018-12-16T11:30:27.310Z,-1.19
2018-12-16T11:32:04.096Z,-1.20
2018-12-16T11:33:42.347Z,-1.28
2018-12-16T11:35:24.885Z,-1.19
2018-12-16T11:37:06.552Z,-1.22
2018-12-16T11:38:44.303Z,-1.22
2018-12-16T11:40:20.722Z,-1.26
2018-12-16T11:42:00.486Z,-1.32
2018-12-16T11:43:37.982Z,-1.36
2018-12-16T11:45:17.703Z,-1.42
2018-12-16T11:47:00.545Z,-1.42
2018-12-16T11:48:39.058Z,-1.46
2018-12-16T11:50:16.096Z,-1.49
2018-12-16T11:51:53.207Z,-1.50
2018-12-16T11:53:30.512Z,-1.42
2018-12-16T11:55:12.735Z,-1.46
2018-12-16T11:56:48.565Z,-1.40
2018-12-16T11:58:25.303Z,-1.49
2018-12-16T12:00:05.606Z,-1.49
2018-12-16T12:01:42.674Z,-1.44
2018-12-16T12:03:20.423Z,-1.52
2018-12-16T12:04:59.277Z,-1.61
2018-12-16T12:06:36.547Z,-1.61
2018-12-16T12:08:13.671Z,-1.59
2018-12-16T12:09:48.484Z,-1.56
2018-12-16T12:11:24.681Z,-1.62
2018-12-16T12:13:02.844Z,-1.60
2018-12-16T12:14:39.196Z,-1.53
2018-12-16T12:16:14.490Z,-1.46
2018-12-16T12:17:54.893Z,-1.46
2018-12-16T12:19:43.083Z,-1.33
2018-12-16T12:21:22.031Z,-1.29
2018-12-16T12:23:02.146Z,-1.20
2018-12-16T12:24:40.133Z,-1.05
2018-12-16T12:26:21.243Z,-1.00
2018-12-16T12:27:57.469Z,-1.00
2018-12-16T12:29:34.892Z,-0.93
2018-12-16T12:31:11.068Z,-0.87
2018-12-16T12:32:49.182Z,-0.87
2018-12-16T12:34:34.759Z,-0.90
2018-12-16T12:36:09.968Z,-0.94
2018-12-16T12:37:50.022Z,-0.96
2018-12-16T12:39:25.544Z,-1.04
2018-12-16T12:41:01.345Z,-1.23
2018-12-16T12:42:36.819Z,-1.25
2018-12-16T12:44:16.035Z,-1.31
2018-12-16T12:45:52.107Z,-1.31
2018-12-16T12:47:30.909Z,-1.40
2018-12-16T12:49:07.206Z,-1.46
2018-12-16T12:50:46.762Z,-1.40
2018-12-16T12:52:23.357Z,-1.57
2018-12-16T12:54:03.309Z,-1.43
2018-12-16T12:55:41.099Z,-1.36
2018-12-16T12:57:18.919Z,-1.29
2018-12-16T12:58:57.215Z,-1.23
2018-12-16T13:00:35.949Z,-1.24
2018-12-16T13:02:15.302Z,-1.14
2018-12-16T13:03:54.318Z,-1.17
2018-12-16T13:05:37.182Z,-1.20
2018-12-16T13:07:13.764Z,-1.21
2018-12-16T13:08:58.538Z,-1.28
2018-12-16T13:10:35.081Z,-1.37
2018-12-16T13:12:14.594Z,-1.35
2018-12-16T13:13:53.832Z,-1.38
2018-12-16T13:15:31.854Z,-1.42
2018-12-16T13:17:11.576Z,-1.42
2018-12-16T13:18:46.570Z,-1.35
2018-12-16T13:20:21.820Z,-1.36
2018-12-16T13:21:59.985Z,-1.30
2018-12-16T13:23:35.828Z,-1.30
2018-12-16T13:25:24.589Z,-1.27
2018-12-16T13:27:00.235Z,-1.24
2018-12-16T13:28:38.180Z,-1.18
2018-12-16T13:30:15.303Z,-1.19
2018-12-16T13:31:50.784Z,-1.19
2018-12-16T13:33:27.280Z,-1.20
2018-12-16T13:35:02.440Z,-1.28
2018-12-16T13:36:38.158Z,-1.26
2018-12-16T13:38:16.247Z,-1.23
2018-12-16T13:39:51.824Z,-1.22
2018-12-16T13:41:26.679Z,-1.17
2018-12-16T13:43:08.810Z,-1.18
2018-12-16T13:44:44.642Z,-1.05
2018-12-16T13:46:21.123Z,-1.04
2018-12-16T13:47:58.757Z,-1.07
2018-12-16T13:49:33.949Z,-1.02
2018-12-16T13:51:11.047Z,-1.04
2018-12-16T13:52:47.158Z,-1.02
2018-12-16T13:54:36.048Z,-0.91
2018-12-16T13:56:27.033Z,-0.96
2018-12-16T13:58:10.139Z,-1.06
2018-12-16T13:59:48.084Z,-1.09
2018-12-16T14:01:24.056Z,-1.01
2018-12-16T14:03:00.722Z,-1.04
2018-12-16T14:04:37.953Z,-1.07
2018-12-16T14:06:14.377Z,-1.04
2018-12-16T14:07:51.809Z,-1.09
2018-12-16T14:09:28.574Z,-1.13
2018-12-16T14:11:03.777Z,-1.17
2018-12-16T14:12:39.016Z,-1.14
2018-12-16T14:14:18.829Z,-1.21
2018-12-16T14:15:56.064Z,-1.24
2018-12-16T14:17:36.764Z,-1.22
2018-12-16T14:19:19.026Z,-1.21
2018-12-16T14:20:56.679Z,-1.18
2018-12-16T14:22:34.157Z,-1.14
2018-12-16T14:24:10.092Z,-1.15
2018-12-16T14:25:48.185Z,-1.21
2018-12-16T14:27:25.186Z,-1.25
2018-12-16T14:29:01.457Z,-1.27
2018-12-16T14:30:37.637Z,-1.32
2018-12-16T14:32:14.389Z,-1.33
2018-12-16T14:33:50.585Z,-1.34
2018-12-16T14:35:25.935Z,-1.32
2018-12-16T14:37:01.541Z,-1.33
2018-12-16T14:38:38.468Z,-1.31
2018-12-16T14:40:17.722Z,-1.29
2018-12-16T14:41:54.539Z,-1.28
2018-12-16T14:43:33.687Z,-1.34
2018-12-16T14:45:13.052Z,-1.38
2018-12-16T14:46:51.504Z,-1.43
2018-12-16T14:48:29.818Z,-1.38
2018-12-16T14:50:08.692Z,-1.34
2018-12-16T14:51:48.310Z,-1.28
2018-12-16T14:53:25.963Z,-1.34
2018-12-16T14:55:04.328Z,-1.29
2018-12-16T14:56:44.097Z,-1.33
2018-12-16T14:58:33.485Z,-1.26
2018-12-16T15:00:12.879Z,-1.27
2018-12-16T15:01:49.438Z,-1.23
2018-12-16T15:03:26.103Z,-1.22
2018-12-16T15:05:06.212Z,-1.19
2018-12-16T15:06:45.484Z,-1.21
2018-12-16T15:08:20.740Z,-1.23
2018-12-16T15:09:58.149Z,-1.22
2018-12-16T15:11:34.067Z,-1.24
2018-12-16T15:13:10.754Z,-1.13
2018-12-16T15:14:47.669Z,-1.18
2018-12-16T15:16:24.728Z,-1.23
2018-12-16T15:18:02.456Z,-1.15
2018-12-16T15:19:38.054Z,-1.17
2018-12-16T15:21:14.613Z,-1.22
2018-12-16T15:22:50.457Z,-1.21
2018-12-16T15:24:38.402Z,-1.14
2018-12-16T15:26:14.879Z,-1.13
2018-12-16T15:27:51.326Z,-1.11
2018-12-16T15:29:27.586Z,-1.18
2018-12-16T15:31:10.174Z,-1.21
2018-12-16T15:32:46.347Z,-1.19
2018-12-16T15:34:21.946Z,-1.16
2018-12-16T15:35:58.339Z,-1.19
2018-12-16T15:37:36.180Z,-1.16
2018-12-16T15:39:12.204Z,-1.11
2018-12-16T15:40:48.842Z,-1.08
2018-12-16T15:42:25.721Z,-1.09
2018-12-16T15:44:03.792Z,-1.01
2018-12-16T15:45:41.559Z,-1.08
2018-12-16T15:47:18.775Z,-1.04
2018-12-16T15:48:54.894Z,-1.06
2018-12-16T15:50:31.150Z,-1.05
2018-12-16T15:52:13.493Z,-1.06
2018-12-16T15:53:51.058Z,-1.06
2018-12-16T15:55:26.368Z,-1.05
2018-12-16T15:57:03.534Z,-1.06
2018-12-16T15:58:40.939Z,-1.07
2018-12-16T16:00:19.618Z,-1.04
2018-12-16T16:01:54.811Z,-1.04
2018-12-16T16:03:29.975Z,-1.03
2018-12-16T16:05:05.715Z,-1.06
2018-12-16T16:06:41.331Z,-1.03
2018-12-16T16:08:17.777Z,-1.03
2018-12-16T16:09:55.590Z,-1.04
2018-12-16T16:11:32.348Z,-1.04
2018-12-16T16:13:07.688Z,-1.05
2018-12-16T16:14:45.231Z,-1.03
2018-12-16T16:16:23.503Z,-1.04
2018-12-16T16:17:59.313Z,-1.06
2018-12-16T16:19:35.374Z,-0.97
2018-12-16T16:21:11.588Z,-1.01
2018-12-16T16:22:48.087Z,-0.98
2018-12-16T16:24:23.410Z,-1.00
2018-12-16T16:26:01.582Z,-0.96
2018-12-16T16:27:38.371Z,-0.96
2018-12-16T16:29:14.794Z,-0.99
2018-12-16T16:30:50.005Z,-0.98
2018-12-16T16:32:31.048Z,-0.97
2018-12-16T16:34:07.689Z,-1.00
2018-12-16T16:35:48.819Z,-0.95
2018-12-16T16:37:24.229Z,-0.97
2018-12-16T16:39:04.145Z,-0.94
2018-12-16T16:40:40.176Z,-0.91
2018-12-16T16:42:18.630Z,-0.90
2018-12-16T16:43:59.205Z,-0.88
2018-12-16T16:45:35.336Z,-0.87
2018-12-16T16:47:16.434Z,-0.86
2018-12-16T16:48:57.503Z,-0.87
2018-12-16T16:50:34.757Z,-0.82
2018-12-16T16:52:12.285Z,-0.86
2018-12-16T16:53:53.133Z,-0.84
2018-12-16T16:55:32.896Z,-0.78
2018-12-16T16:57:11.254Z,-0.83
2018-12-16T16:58:47.463Z,-0.77
2018-12-16T17:00:32.453Z,-0.77
2018-12-16T17:02:08.747Z,-0.87
2018-12-16T17:03:44.257Z,-0.88
2018-12-16T17:05:22.975Z,-0.82
2018-12-16T17:06:59.151Z,-0.74
2018-12-16T17:08:39.980Z,-0.69
2018-12-16T17:10:15.538Z,-0.72
2018-12-16T17:11:50.719Z,-0.70
2018-12-16T17:13:26.412Z,-0.65
2018-12-16T17:15:09.680Z,-0.58
2018-12-16T17:16:47.947Z,-0.61
2018-12-16T17:18:26.685Z,-0.57
2018-12-16T17:20:09.313Z,-0.51
2018-12-16T17:21:46.469Z,-0.55
2018-12-16T17:23:26.059Z,-0.54
2018-12-16T17:25:04.120Z,-0.54
2018-12-16T17:26:40.950Z,-0.62
2018-12-16T17:28:25.493Z,-0.60
2018-12-16T17:30:08.241Z,-0.65
2018-12-16T17:31:46.380Z,-0.65
2018-12-16T17:33:24.801Z,-0.64
2018-12-16T17:35:01.146Z,-0.70
2018-12-16T17:36:36.956Z,-0.74
2018-12-16T17:38:13.536Z,-0.76
2018-12-16T17:39:48.682Z,-0.73
2018-12-16T17:41:25.136Z,-0.67
2018-12-16T17:43:03.662Z,-0.70
2018-12-16T17:44:40.599Z,-0.68
2018-12-16T17:46:17.567Z,-0.63
2018-12-16T17:47:54.387Z,-0.65
2018-12-16T17:49:30.993Z,-0.59
2018-12-16T17:51:07.491Z,-0.52
2018-12-16T17:52:47.849Z,-0.49
2018-12-16T17:54:24.293Z,-0.44
2018-12-16T17:56:01.949Z,-0.48
2018-12-16T17:57:39.614Z,-0.45
2018-12-16T17:59:25.138Z,-0.49
2018-12-16T18:01:08.208Z,-0.42
2018-12-16T18:02:49.201Z,-0.51
2018-12-16T18:04:27.776Z,-0.53
2018-12-16T18:06:06.444Z,-0.49
2018-12-16T18:07:46.617Z,-0.39
2018-12-16T18:09:24.004Z,-0.45
2018-12-16T18:11:03.366Z,-0.45
2018-12-16T18:12:46.001Z,-0.43
2018-12-16T18:14:28.923Z,-0.35
2018-12-16T18:16:09.387Z,-0.36
2018-12-16T18:17:49.958Z,-0.37
2018-12-16T18:19:27.741Z,-0.36
2018-12-16T18:21:05.556Z,-0.33
2018-12-16T18:22:48.483Z,-0.27
2018-12-16T18:24:25.284Z,-0.36
2018-12-16T18:26:00.312Z,-0.30
2018-12-16T18:27:40.075Z,-0.29
2018-12-16T18:29:17.134Z,-0.27
2018-12-16T18:30:56.594Z,-0.24
2018-12-16T18:32:39.985Z,-0.25
2018-12-16T18:34:17.878Z,-0.24
2018-12-16T18:35:55.790Z,-0.28
2018-12-16T18:37:32.769Z,-0.25
2018-12-16T18:39:13.229Z,-0.24
2018-12-16T18:40:50.088Z,-0.21
2018-12-16T18:42:28.951Z,-0.17
2018-12-16T18:44:09.342Z,-0.18
2018-12-16T18:45:49.043Z,-0.22
2018-12-16T18:47:28.285Z,-0.21
2018-12-16T18:49:07.862Z,-0.28
2018-12-16T18:50:47.262Z,-0.28
2018-12-16T18:52:26.967Z,-0.30
2018-12-16T18:54:05.247Z,-0.33
2018-12-16T18:55:44.792Z,-0.36
2018-12-16T18:57:26.298Z,-0.34
2018-12-16T18:59:06.049Z,-0.36
2018-12-16T19:00:46.756Z,-0.41
2018-12-16T19:02:31.686Z,-0.46
2018-12-16T19:04:13.111Z,-0.50
2018-12-16T19:06:01.383Z,-0.49
2018-12-16T19:07:47.066Z,-0.47
2018-12-16T19:09:46.109Z,-0.48
2018-12-16T19:11:36.679Z,-0.49
2018-12-16T19:13:16.003Z,-0.57
2018-12-16T19:14:52.454Z,-0.59
2018-12-16T19:16:42.943Z,-0.58
2018-12-16T19:18:25.474Z,-0.56
2018-12-16T19:20:05.769Z,-0.53
2018-12-16T19:21:47.579Z,-0.51
2018-12-16T19:23:27.352Z,-0.55
2018-12-16T19:25:28.420Z,-0.56
2018-12-16T19:27:13.992Z,-0.56
2018-12-16T19:28:52.026Z,-0.56
2018-12-16T19:32:22.712Z,-0.60
2018-12-16T19:34:02.317Z,-0.59
2018-12-16T19:35:39.480Z,-0.59
2018-12-16T19:37:15.124Z,-0.58
2018-12-16T19:38:58.028Z,-0.55
2018-12-16T19:40:39.972Z,-0.57
2018-12-16T19:42:22.882Z,-0.55
2018-12-16T19:44:06.209Z,-0.55
2018-12-16T19:45:45.291Z,-0.58
2018-12-16T19:47:26.110Z,-0.55
2018-12-16T19:49:05.045Z,-0.55
2018-12-16T19:50:48.101Z,-0.54
2018-12-16T19:52:24.367Z,-0.54
2018-12-16T19:54:04.351Z,-0.56
2018-12-16T19:56:00.180Z,-0.54
2018-12-16T19:57:39.651Z,-0.55
2018-12-16T19:59:31.698Z,-0.55
2018-12-16T20:01:07.531Z,-0.54
2018-12-16T20:02:47.569Z,-0.49
2018-12-16T20:04:38.475Z,-0.46
2018-12-16T20:06:20.063Z,-0.45
2018-12-16T20:07:59.794Z,-0.42
2018-12-16T20:09:38.740Z,-0.44
2018-12-16T20:11:19.536Z,-0.41
2018-12-16T20:12:57.280Z,-0.41
2018-12-16T20:14:39.286Z,-0.37
2018-12-16T20:16:23.103Z,-0.37
2018-12-16T20:19:47.649Z,-0.39
2018-12-16T20:21:31.954Z,-0.42
2018-12-16T20:23:11.074Z,-0.36
2018-12-16T20:24:48.465Z,-0.37
2018-12-16T20:26:28.085Z,-0.34
2018-12-16T20:28:12.761Z,-0.31
2018-12-16T20:29:54.983Z,-0.30
2018-12-16T20:31:37.497Z,-0.28
2018-12-16T20:33:17.115Z,-0.26
2018-12-16T20:36:47.488Z,-0.20
2018-12-16T20:38:33.773Z,-0.15
2018-12-16T20:40:17.555Z,-0.15
2018-12-16T20:42:01.374Z,-0.18
2018-12-16T20:43:48.946Z,-0.20
2018-12-16T20:45:29.752Z,-0.22
2018-12-16T20:47:08.422Z,-0.19
2018-12-16T20:48:45.753Z,-0.22
2018-12-16T20:50:20.682Z,-0.21
2018-12-16T20:52:02.020Z,-0.24
2018-12-16T20:53:37.925Z,-0.22
2018-12-16T20:55:16.169Z,-0.23
2018-12-16T20:56:54.441Z,-0.27
2018-12-16T20:58:30.510Z,-0.24
2018-12-16T21:00:09.670Z,-0.23
2018-12-16T21:01:46.365Z,-0.26
2018-12-16T21:03:24.545Z,-0.25
2018-12-16T21:05:00.984Z,-0.27
2018-12-16T21:06:37.621Z,-0.23
2018-12-16T21:08:16.022Z,-0.28
2018-12-16T21:09:54.905Z,-0.37